Time;durP1;ratioP1;P1;durP2;ratioP2;P2;SDS_P1;SDS_P2;PMS_P1;PMS_P2;Temp;Humidity;BMP_temperature;BMP_pressure;BME280_temperature;BME280_humidity;BME280_pressure;Samples;Min_cycle;Max_cycle;Signal;HPM_P1;HPM_P2
2022/03/07 00:00:12;;;;;;;19.25;9.45;;;;;;;1.05;65.50;147935.13;1783393;80;21069;-65
2022/03/07 00:02:39;;;;;;;18.10;9.38;;;;;;;1.05;65.66;147935.13;1784061;80;20966;-65
2022/03/07 00:05:08;;;;;;;19.95;9.73;;;;;;;1.05;65.81;147935.13;1783714;80;21002;-64
2022/03/07 00:07:37;;;;;;;21.37;10.80;;;;;;;1.05;65.93;147935.13;1783607;80;21028;-64
2022/03/07 00:10:05;;;;;;;19.20;10.13;;;;;;;1.04;66.01;147932.55;1784432;78;21044;-63
2022/03/07 00:12:33;;;;;;;20.82;10.28;;;;;;;1.04;66.24;147932.55;1784566;80;22663;-63
2022/03/07 00:15:01;;;;;;;22.05;10.20;;;;;;;1.02;66.50;147926.09;1784632;80;21320;-57
2022/03/07 00:17:28;;;;;;;22.15;10.60;;;;;;;1.02;66.78;147927.41;1784426;80;21121;-58
2022/03/07 00:19:57;;;;;;;19.30;10.08;;;;;;;1.02;66.91;147927.41;1784444;79;20889;-58
2022/03/07 00:22:25;;;;;;;19.23;9.03;;;;;;;1.00;66.82;147922.25;1784486;80;21085;-61
2022/03/07 00:24:52;;;;;;;19.20;9.15;;;;;;;1.00;66.60;147922.25;1784928;79;20964;-58
2022/03/07 00:27:19;;;;;;;18.12;8.58;;;;;;;0.99;66.67;147919.63;1784134;80;20976;-58
2022/03/07 00:29:47;;;;;;;18.73;9.23;;;;;;;1.01;66.78;147924.83;1784016;80;21100;-58
2022/03/07 00:32:16;;;;;;;19.17;9.83;;;;;;;1.00;66.68;147922.25;1782350;80;21053;-58
2022/03/07 00:34:43;;;;;;;20.32;9.65;;;;;;;1.00;66.55;147923.52;1783255;80;20974;-64
2022/03/07 00:37:12;;;;;;;18.32;9.70;;;;;;;1.00;66.65;147922.25;1782714;80;21002;-64
2022/03/07 00:39:39;;;;;;;18.17;9.13;;;;;;;0.99;66.75;147919.63;1782971;80;21109;-64
2022/03/07 00:42:07;;;;;;;17.05;9.05;;;;;;;0.98;66.76;147917.06;1782679;80;21680;-65
2022/03/07 00:44:34;;;;;;;15.45;8.23;;;;;;;0.99;66.81;147919.63;1783157;80;21203;-65
2022/03/07 00:47:04;;;;;;;17.42;8.20;;;;;;;0.97;66.63;147915.80;1783665;80;20946;-65
2022/03/07 00:49:31;;;;;;;16.15;8.28;;;;;;;0.98;66.59;147917.06;1783081;80;21081;-65
2022/03/07 00:51:58;;;;;;;17.70;8.88;;;;;;;0.98;66.42;147918.37;1782092;80;21022;-64
2022/03/07 00:54:27;;;;;;;16.50;8.60;;;;;;;0.99;66.41;147920.94;1766434;81;21018;-65
2022/03/07 00:56:54;;;;;;;15.98;8.23;;;;;;;1.00;66.34;147923.52;1766497;81;21862;-65
2022/03/07 00:59:22;;;;;;;16.62;8.03;;;;;;;1.00;66.17;147922.25;1765937;80;21086;-58
2022/03/07 01:01:50;;;;;;;16.62;9.10;;;;;;;0.98;66.36;147918.37;1766385;81;21063;-58
2022/03/07 01:04:17;;;;;;;15.83;8.18;;;;;;;0.97;66.71;147915.80;1765675;80;21066;-63
2022/03/07 01:06:44;;;;;;;16.20;8.03;;;;;;;0.95;66.89;147909.33;1759213;79;21141;-64
2022/03/07 01:09:13;;;;;;;15.18;8.25;;;;;;;0.92;67.00;147901.63;1769776;79;21875;-64
2022/03/07 01:11:41;;;;;;;14.35;7.58;;;;;;;0.90;67.03;147897.78;1769404;80;21017;-59
2022/03/07 01:14:08;;;;;;;16.40;8.00;;;;;;;0.89;66.98;147893.89;1770449;81;21073;-59
2022/03/07 01:16:35;;;;;;;15.18;7.72;;;;;;;0.86;66.79;147887.44;1770723;79;21099;-65
2022/03/07 01:19:04;;;;;;;17.05;7.92;;;;;;;0.83;66.52;147881.03;1770341;79;20981;-65
2022/03/07 01:21:34;;;;;;;17.27;8.50;;;;;;;0.82;66.30;147878.45;1769931;79;20981;-63
2022/03/07 01:24:01;;;;;;;14.80;7.87;;;;;;;0.81;66.19;147875.88;1770433;79;20871;-64
2022/03/07 01:26:29;;;;;;;12.95;7.15;;;;;;;0.81;66.16;147874.56;1770401;81;21096;-64
2022/03/07 01:28:56;;;;;;;12.43;7.10;;;;;;;0.80;65.92;147873.31;1770644;81;20985;-57
2022/03/07 01:31:24;;;;;;;13.40;6.78;;;;;;;0.82;66.03;147878.45;1770363;79;21054;-57
2022/03/07 01:33:51;;;;;;;14.63;6.90;;;;;;;0.84;66.14;147882.28;1770954;79;21221;-64
2022/03/07 01:36:19;;;;;;;14.03;7.40;;;;;;;0.84;66.22;147883.59;1770115;81;21070;-64
2022/03/07 01:38:46;;;;;;;15.03;7.15;;;;;;;0.87;66.35;147890.02;1770946;79;21089;-58
2022/03/07 01:41:13;;;;;;;13.05;7.03;;;;;;;0.89;66.46;147895.20;1769774;80;21066;-58
2022/03/07 01:43:42;;;;;;;16.20;7.83;;;;;;;0.91;66.65;147899.03;1770872;79;21113;-58
2022/03/07 01:46:09;;;;;;;13.48;7.15;;;;;;;0.91;66.98;147899.03;1770367;79;21779;-59
2022/03/07 01:48:37;;;;;;;13.58;7.30;;;;;;;0.90;67.13;147896.47;1770735;81;21101;-58
2022/03/07 01:51:04;;;;;;;13.43;7.67;;;;;;;0.91;67.42;147899.03;1770057;79;20970;-58
2022/03/07 01:53:34;;;;;;;13.95;7.33;;;;;;;0.90;67.75;147897.78;1770497;79;21127;-58
2022/03/07 01:56:04;;;;;;;15.72;8.38;;;;;;;0.91;67.98;147899.03;1770538;81;21524;-57
2022/03/07 01:58:32;;;;;;;13.75;7.47;;;;;;;0.89;68.21;147893.89;1770560;81;21106;-58
2022/03/07 02:01:01;;;;;;;12.93;7.90;;;;;;;0.89;68.47;147893.89;1769405;79;21010;-58
2022/03/07 02:03:30;;;;;;;17.92;8.75;;;;;;;0.91;68.77;147899.03;1769979;79;21552;-58
2022/03/07 02:05:57;;;;;;;14.75;8.18;;;;;;;0.90;69.09;147897.78;1770239;79;20955;-58
2022/03/07 02:08:26;;;;;;;18.37;8.95;;;;;;;0.90;69.47;147896.47;1770639;79;21091;-58
2022/03/07 02:10:56;;;;;;;17.17;8.88;;;;;;;0.89;69.93;147895.20;1789325;79;21143;-57
2022/03/07 02:13:23;;;;;;;16.70;9.13;;;;;;;0.85;70.40;147886.17;1757745;79;21108;-58
2022/03/07 02:16:00;;;;;;;16.07;8.75;;;;;;;0.84;71.08;147883.59;1771331;79;20993;-58
2022/03/07 02:18:30;;;;;;;20.90;9.53;;;;;;;0.82;71.40;147877.14;1771499;79;20988;-58
2022/03/07 02:21:04;;;;;;;14.43;8.03;;;;;;;0.81;71.84;147874.56;1771481;80;21467;-58
2022/03/07 02:23:32;;;;;;;16.30;9.08;;;;;;;0.82;72.21;147878.45;1770944;79;21266;-57
2022/03/07 02:25:59;;;;;;;19.30;9.23;;;;;;;0.82;72.68;147878.45;1771320;81;21076;-57
2022/03/07 02:28:26;;;;;;;18.90;8.90;;;;;;;0.79;73.03;147870.73;1756722;81;21244;-57
2022/03/07 02:30:53;;;;;;;18.42;9.18;;;;;;;0.81;73.35;147875.88;1771628;79;21014;-57
2022/03/07 02:33:20;;;;;;;20.12;9.43;;;;;;;0.79;73.59;147870.73;1771031;79;21030;-58
2022/03/07 02:35:48;;;;;;;20.95;11.20;;;;;;;0.79;73.85;147870.73;1747487;80;21830;-57
2022/03/07 02:38:16;;;;;;;19.67;11.18;;;;;;;0.79;74.18;147870.73;1766763;79;21017;-57
2022/03/07 02:40:46;;;;;;;17.50;10.40;;;;;;;0.79;74.51;147869.42;1739204;82;21062;-57
2022/03/07 02:43:16;;;;;;;22.27;10.32;;;;;;;0.77;74.82;147865.53;1738201;80;21074;-57
2022/03/07 02:45:45;;;;;;;22.70;10.68;;;;;;;0.79;75.06;147869.42;1741944;80;21022;-64
2022/03/07 02:48:13;;;;;;;20.17;10.05;;;;;;;0.79;75.34;147870.73;1707085;84;21184;-57
2022/03/07 02:50:40;;;;;;;17.05;9.53;;;;;;;0.78;75.51;147866.84;1699286;83;21088;-64
2022/03/07 02:53:08;;;;;;;21.12;10.28;;;;;;;0.78;75.70;147868.16;1701671;83;21186;-64
2022/03/07 02:55:35;;;;;;;19.82;9.73;;;;;;;0.79;75.96;147869.42;1707140;82;21050;-58
2022/03/07 02:58:03;;;;;;;20.15;10.10;;;;;;;0.78;76.18;147868.16;1677471;84;21012;-64
2022/03/07 03:00:31;;;;;;;21.33;10.93;;;;;;;0.79;76.24;147869.42;1706994;82;21620;-64
2022/03/07 03:02:58;;;;;;;20.75;10.85;;;;;;;0.79;76.34;147870.73;1707336;82;20953;-65
2022/03/07 03:05:25;;;;;;;22.48;10.35;;;;;;;0.81;76.47;147875.88;1706925;82;21047;-59
2022/03/07 03:07:52;;;;;;;19.70;10.58;;;;;;;0.81;76.54;147875.88;1707610;82;21480;-58
2022/03/07 03:10:19;;;;;;;21.60;10.55;;;;;;;0.83;76.60;147881.03;1718797;82;21063;-58
2022/03/07 03:12:48;;;;;;;20.88;11.33;;;;;;;0.84;76.63;147883.59;1707404;84;21057;-64
2022/03/07 03:15:15;;;;;;;22.75;12.40;;;;;;;0.85;76.53;147886.17;1706857;83;20949;-64
2022/03/07 03:17:43;;;;;;;22.90;11.78;;;;;;;0.87;76.59;147888.75;1707505;83;21056;-58
2022/03/07 03:20:12;;;;;;;18.25;10.50;;;;;;;0.87;76.64;147888.75;1707241;84;21565;-57
2022/03/07 03:22:41;;;;;;;18.40;11.08;;;;;;;0.85;76.49;147884.86;1706692;84;21605;-57
2022/03/07 03:25:09;;;;;;;22.27;11.48;;;;;;;0.83;76.07;147881.03;1705806;84;21237;-64
2022/03/07 03:27:37;;;;;;;20.60;11.12;;;;;;;0.85;75.73;147886.17;1707154;83;21060;-57
2022/03/07 03:30:07;;;;;;;20.27;10.25;;;;;;;0.86;75.67;147887.44;1719426;82;21019;-64
2022/03/07 03:32:34;;;;;;;18.75;9.75;;;;;;;0.85;75.30;147884.86;1731671;82;21034;-64
2022/03/07 03:35:01;;;;;;;19.92;10.80;;;;;;;0.88;75.00;147891.31;1731768;81;20927;-66
2022/03/07 03:37:28;;;;;;;22.75;11.08;;;;;;;0.88;74.73;147892.58;1731865;81;21227;-59
2022/03/07 03:39:55;;;;;;;21.75;11.75;;;;;;;0.89;74.63;147893.89;1732110;81;20999;-64
2022/03/07 03:42:22;;;;;;;21.35;11.15;;;;;;;0.91;74.46;147899.03;1731793;81;21106;-59
2022/03/07 03:44:50;;;;;;;22.48;10.90;;;;;;;0.92;74.27;147901.63;1731929;81;21055;-64
2022/03/07 03:47:17;;;;;;;23.50;9.83;;;;;;;0.93;74.12;147905.50;1731721;81;21529;-58
2022/03/07 03:49:44;;;;;;;15.18;8.95;;;;;;;0.94;73.71;147908.06;1732032;82;21259;-65
2022/03/07 03:52:11;;;;;;;19.42;9.28;;;;;;;0.95;73.54;147909.33;1731508;81;21062;-58
2022/03/07 03:54:38;;;;;;;19.07;9.15;;;;;;;0.96;73.37;147911.91;1731387;81;21082;-58
2022/03/07 03:57:06;;;;;;;16.40;8.98;;;;;;;0.95;73.15;147910.64;1731395;81;21043;-58
2022/03/07 03:59:34;;;;;;;16.30;8.33;;;;;;;0.97;73.01;147914.48;1731531;81;21027;-58
2022/03/07 04:02:01;;;;;;;22.85;12.00;;;;;;;0.97;72.81;147914.48;1731023;82;21252;-59
2022/03/07 04:04:29;;;;;;;19.12;10.23;;;;;;;0.98;72.60;147917.06;1730946;81;21061;-58
2022/03/07 04:06:56;;;;;;;18.67;9.55;;;;;;;0.98;72.37;147917.06;1731693;82;21458;-65
2022/03/07 04:09:23;;;;;;;17.37;8.63;;;;;;;0.98;72.37;147917.06;1693590;82;21599;-64
2022/03/07 04:11:54;;;;;;;16.40;9.55;;;;;;;0.98;72.30;147918.37;1705927;83;21194;-65
2022/03/07 04:14:20;;;;;;;16.20;8.83;;;;;;;0.99;72.26;147919.63;1738343;80;21116;-65
2022/03/07 04:16:47;;;;;;;16.70;9.20;;;;;;;1.00;72.21;147922.25;1738734;82;21049;-64
2022/03/07 04:19:15;;;;;;;15.35;8.40;;;;;;;1.00;72.19;147923.52;1739317;82;21103;-65
2022/03/07 04:21:42;;;;;;;19.00;9.30;;;;;;;1.02;72.21;147927.41;1739620;82;21076;-58
2022/03/07 04:24:12;;;;;;;15.95;9.05;;;;;;;1.02;72.22;147926.09;1739177;82;21426;-59
2022/03/07 04:26:42;;;;;;;14.43;8.08;;;;;;;1.01;72.30;147924.83;1739686;81;21825;-58
2022/03/07 04:29:09;;;;;;;15.78;9.18;;;;;;;1.02;72.26;147927.41;1739602;82;21735;-58
2022/03/07 04:31:39;;;;;;;16.73;9.05;;;;;;;1.03;72.22;147928.66;1735939;81;21749;-59
2022/03/07 04:34:12;;;;;;;17.95;9.80;;;;;;;1.02;72.36;147927.41;1735703;81;21051;-58
2022/03/07 04:36:36;;;;;;;18.25;10.00;;;;;;;1.01;72.51;147924.83;1735420;82;21058;-58
2022/03/07 04:39:04;;;;;;;17.65;9.80;;;;;;;1.02;72.65;147926.09;1736563;82;21820;-59
2022/03/07 04:41:32;;;;;;;15.75;8.63;;;;;;;1.02;72.66;147926.09;1736564;82;21189;-58
2022/03/07 04:43:59;;;;;;;17.25;9.33;;;;;;;1.01;72.47;147924.83;1736333;82;20952;-59
2022/03/07 04:46:27;;;;;;;17.27;9.40;;;;;;;1.00;72.53;147923.52;1736467;82;21303;-59
2022/03/07 04:48:54;;;;;;;19.73;9.65;;;;;;;1.02;72.58;147927.41;1737003;82;21470;-59
2022/03/07 04:51:22;;;;;;;16.82;9.43;;;;;;;1.04;72.65;147931.23;1736241;82;21173;-65
2022/03/07 04:53:49;;;;;;;17.17;8.88;;;;;;;1.06;72.83;147937.69;1744860;80;21094;-64
2022/03/07 04:56:18;;;;;;;20.17;9.25;;;;;;;1.11;72.96;147949.31;1766827;81;20998;-65
2022/03/07 04:58:45;;;;;;;16.75;9.88;;;;;;;1.18;72.98;147966.02;1766821;80;21107;-64
2022/03/07 05:01:14;;;;;;;17.82;9.18;;;;;;;1.24;72.98;147981.50;1766521;81;21105;-59
2022/03/07 05:03:41;;;;;;;18.90;9.68;;;;;;;1.27;72.89;147989.23;1766956;81;21171;-59
2022/03/07 05:06:09;;;;;;;21.70;9.90;;;;;;;1.31;72.91;147999.53;1766881;81;21388;-60
2022/03/07 05:08:41;;;;;;;20.70;9.78;;;;;;;1.36;72.99;148012.39;1739703;81;21047;-59
2022/03/07 05:11:08;;;;;;;17.17;9.55;;;;;;;1.42;73.09;148026.59;1720966;82;21108;-58
2022/03/07 05:13:36;;;;;;;15.30;8.00;;;;;;;1.48;72.91;148040.77;1704632;84;21112;-59
2022/03/07 05:16:05;;;;;;;13.85;8.08;;;;;;;1.48;71.95;148040.77;1712775;83;21994;-59
2022/03/07 05:18:32;;;;;;;17.52;8.20;;;;;;;1.49;71.06;148044.61;1712835;83;21087;-60
2022/03/07 05:20:59;;;;;;;23.80;12.10;;;;;;;1.51;70.67;148049.75;1712738;82;21013;-58
2022/03/07 05:23:28;;;;;;;23.83;13.00;;;;;;;1.56;71.17;148061.37;1712133;83;20996;-59
2022/03/07 05:25:55;;;;;;;20.50;11.80;;;;;;;1.62;71.77;148075.56;1712905;83;21061;-64
2022/03/07 05:28:23;;;;;;;22.22;11.08;;;;;;;1.66;72.08;148087.17;1713055;83;21145;-64
2022/03/07 05:30:50;;;;;;;24.18;11.97;;;;;;;1.70;72.05;148097.47;1723753;83;21599;-64
2022/03/07 05:33:18;;;;;;;24.45;13.13;;;;;;;1.77;72.27;148114.23;1725359;83;21065;-65
2022/03/07 05:35:46;;;;;;;26.60;14.23;;;;;;;1.81;72.59;148124.53;1725991;83;21054;-65
2022/03/07 05:38:13;;;;;;;27.22;13.78;;;;;;;1.87;72.95;148138.67;1725674;82;21042;-65
2022/03/07 05:40:41;;;;;;;29.35;14.33;;;;;;;1.89;73.05;148143.88;1726038;82;21773;-65
2022/03/07 05:43:08;;;;;;;26.02;13.40;;;;;;;1.93;73.15;148154.17;1725877;82;21140;-66
2022/03/07 05:45:36;;;;;;;27.62;14.05;;;;;;;1.96;73.19;148161.91;1698209;81;21700;-65
2022/03/07 05:48:04;;;;;;;26.02;14.13;;;;;;;1.98;73.25;148167.06;1696543;83;21072;-64
2022/03/07 05:50:32;;;;;;;25.12;13.25;;;;;;;2.01;73.31;148173.53;1696055;84;21125;-65
2022/03/07 05:52:59;;;;;;;24.15;12.10;;;;;;;2.04;73.12;148179.94;1696807;83;22301;-65
2022/03/07 05:55:27;;;;;;;25.48;12.30;;;;;;;2.05;72.80;148182.52;1712567;83;21659;-65
2022/03/07 05:57:59;;;;;;;25.40;12.58;;;;;;;2.08;72.44;148190.25;1717458;83;21470;-64
2022/03/07 06:00:23;;;;;;;24.55;12.93;;;;;;;2.10;72.34;148195.41;1715674;83;21135;-64
2022/03/07 06:02:50;;;;;;;27.65;13.18;;;;;;;2.12;72.39;148201.86;1716823;83;21027;-64
2022/03/07 06:05:17;;;;;;;24.40;12.98;;;;;;;2.12;72.61;148200.59;1716290;82;21193;-65
2022/03/07 06:07:45;;;;;;;28.75;12.70;;;;;;;2.16;72.89;148210.91;1725673;80;21629;-65
2022/03/07 06:10:12;;;;;;;23.05;12.13;;;;;;;2.19;73.06;148218.62;1751630;81;21067;-65
2022/03/07 06:12:39;;;;;;;28.57;12.43;;;;;;;2.23;73.14;148227.67;1780312;80;21048;-65
2022/03/07 06:15:08;;;;;;;26.68;12.40;;;;;;;2.26;73.12;148236.66;1781479;80;21044;-65
2022/03/07 06:17:35;;;;;;;24.47;13.30;;;;;;;2.32;73.09;148250.86;1781896;78;21179;-65
2022/03/07 06:20:06;;;;;;;27.10;13.78;;;;;;;2.35;73.02;148258.59;1782098;79;21060;-65
2022/03/07 06:22:35;;;;;;;32.45;16.50;;;;;;;2.40;73.01;148271.47;1782000;79;20965;-64
2022/03/07 06:25:02;;;;;;;36.33;19.12;;;;;;;2.44;72.90;148280.52;1781759;80;20917;-65
2022/03/07 06:27:29;;;;;;;54.90;22.05;;;;;;;2.48;72.71;148290.83;1781798;79;21063;-64
2022/03/07 06:29:56;;;;;;;52.40;21.57;;;;;;;2.53;72.50;148303.70;1782027;78;21432;-64
2022/03/07 06:32:26;;;;;;;43.05;18.55;;;;;;;2.54;72.31;148306.34;1781651;80;21021;-59
2022/03/07 06:34:53;;;;;;;43.10;15.70;;;;;;;2.57;72.10;148314.06;1781991;79;21077;-60
2022/03/07 06:37:20;;;;;;;38.58;15.88;;;;;;;2.58;71.40;148316.64;1781367;80;20977;-59
2022/03/07 06:39:47;;;;;;;41.33;16.30;;;;;;;2.62;70.87;148324.38;1782179;80;21037;-60
2022/03/07 06:42:15;;;;;;;37.42;16.40;;;;;;;2.63;70.98;148328.22;1781363;78;21609;-64
2022/03/07 06:44:42;;;;;;;45.52;18.62;;;;;;;2.65;71.16;148333.42;1781566;80;21018;-58
2022/03/07 06:47:09;;;;;;;54.05;21.68;;;;;;;2.68;71.24;148341.16;1781795;80;20900;-64
2022/03/07 06:49:37;;;;;;;52.30;20.60;;;;;;;2.70;71.29;148346.31;1781999;78;21025;-65
2022/03/07 06:52:05;;;;;;;25.17;12.80;;;;;;;2.73;71.19;148352.72;1781684;78;20927;-65
2022/03/07 06:54:32;;;;;;;30.08;12.58;;;;;;;2.75;70.68;148357.88;1778564;78;21183;-59
2022/03/07 06:56:59;;;;;;;35.83;15.18;;;;;;;2.76;69.43;148359.19;1771210;79;21788;-59
2022/03/07 06:59:26;;;;;;;32.38;14.43;;;;;;;2.78;69.37;148365.66;1771120;80;21097;-59
2022/03/07 07:01:53;;;;;;;28.02;14.45;;;;;;;2.82;69.33;148375.97;1771244;79;21031;-58
2022/03/07 07:04:22;;;;;;;24.40;12.58;;;;;;;2.86;69.27;148386.28;1771212;79;21057;-64
2022/03/07 07:06:49;;;;;;;22.35;12.15;;;;;;;2.91;69.20;148396.59;1771431;81;21264;-64
2022/03/07 07:09:18;;;;;;;20.48;10.72;;;;;;;2.98;69.03;148414.64;1770735;79;21554;-64
2022/03/07 07:11:45;;;;;;;21.10;10.95;;;;;;;3.03;68.84;148427.58;1771015;81;21545;-64
2022/03/07 07:14:12;;;;;;;22.22;10.40;;;;;;;3.10;68.54;148445.62;1767373;79;21108;-64
2022/03/07 07:16:39;;;;;;;21.05;10.65;;;;;;;3.17;68.12;148461.09;1740361;80;21051;-64
2022/03/07 07:19:07;;;;;;;21.52;10.63;;;;;;;3.22;67.68;148474.03;1739859;80;21936;-64
2022/03/07 07:21:34;;;;;;;19.98;10.15;;;;;;;3.26;66.84;148484.34;1739456;80;20930;-64
2022/03/07 07:24:01;;;;;;;20.35;9.83;;;;;;;3.30;65.95;148494.67;1740505;82;21012;-64
2022/03/07 07:26:28;;;;;;;22.85;12.18;;;;;;;3.35;65.25;148507.56;1740288;82;21070;-64
2022/03/07 07:28:55;;;;;;;24.70;12.37;;;;;;;3.41;64.93;148523.03;1742274;80;21062;-64
2022/03/07 07:31:23;;;;;;;20.40;11.75;;;;;;;3.48;64.75;148539.81;1777592;80;21268;-64
2022/03/07 07:33:51;;;;;;;27.57;13.00;;;;;;;3.54;64.48;148554.03;1743014;82;21018;-65
2022/03/07 07:36:19;;;;;;;31.70;14.45;;;;;;;3.60;64.45;148569.50;1777724;80;21102;-67
2022/03/07 07:38:46;;;;;;;34.33;13.10;;;;;;;3.67;64.60;148587.61;1712058;82;21045;-65
2022/03/07 07:41:13;;;;;;;27.60;12.00;;;;;;;3.75;64.53;148605.66;1777468;80;21093;-63
2022/03/07 07:43:41;;;;;;;24.07;11.08;;;;;;;3.81;64.15;148621.14;1777665;80;21910;-65
2022/03/07 07:46:08;;;;;;;29.00;9.75;;;;;;;3.87;63.52;148637.94;1778094;80;21007;-64
2022/03/07 07:48:35;;;;;;;18.37;8.35;;;;;;;3.92;62.84;148649.56;1777681;80;21002;-65
2022/03/07 07:51:02;;;;;;;18.37;8.33;;;;;;;3.98;61.74;148663.78;1777917;80;21014;-66
2022/03/07 07:53:30;;;;;;;21.85;8.88;;;;;;;4.06;60.59;148683.11;1777563;80;21058;-65
2022/03/07 07:55:57;;;;;;;13.90;6.65;;;;;;;4.13;59.84;148701.22;1777741;80;22145;-65
2022/03/07 07:58:26;;;;;;;10.18;5.45;;;;;;;4.20;59.31;148719.28;1777542;80;21044;-64
2022/03/07 08:00:53;;;;;;;13.38;6.20;;;;;;;4.22;57.49;148724.44;1778126;80;21069;-63
2022/03/07 08:03:21;;;;;;;14.60;7.65;;;;;;;4.19;56.85;148716.70;1777651;80;21747;-65
2022/03/07 08:05:48;;;;;;;15.95;7.47;;;;;;;4.01;59.09;148672.78;1778211;80;21448;-65
2022/03/07 08:08:15;;;;;;;16.57;8.10;;;;;;;3.67;60.12;148587.61;1778288;80;21151;-64
2022/03/07 08:10:44;;;;;;;16.02;7.62;;;;;;;3.29;61.51;148492.09;1796582;78;20980;-64
2022/03/07 08:13:12;;;;;;;11.78;6.12;;;;;;;3.07;63.04;148437.89;1772967;80;21067;-64
2022/03/07 08:15:40;;;;;;;9.10;5.17;;;;;;;2.98;62.26;148414.64;1773199;80;21086;-64
2022/03/07 08:18:08;;;;;;;9.48;5.33;;;;;;;2.86;61.42;148386.28;1773288;80;21004;-64
2022/03/07 08:20:36;;;;;;;10.20;5.40;;;;;;;2.76;60.78;148359.19;1773136;80;21182;-64
2022/03/07 08:23:04;;;;;;;11.03;5.40;;;;;;;2.73;60.34;148352.72;1773594;80;21043;-65
2022/03/07 08:25:33;;;;;;;15.03;7.60;;;;;;;2.76;60.52;148360.45;1772138;80;20987;-64
2022/03/07 08:28:00;;;;;;;13.48;5.95;;;;;;;2.80;59.82;148369.50;1773412;80;20989;-65
2022/03/07 08:30:28;;;;;;;11.05;5.85;;;;;;;2.76;59.75;148360.45;1777475;80;21064;-65
2022/03/07 08:32:56;;;;;;;7.87;5.22;;;;;;;2.76;60.05;148360.45;1780192;80;21909;-64
2022/03/07 08:35:23;;;;;;;10.63;5.65;;;;;;;2.81;60.23;148373.41;1779451;79;21084;-64
2022/03/07 08:37:51;;;;;;;9.68;5.42;;;;;;;2.87;59.99;148387.55;1745606;82;20971;-64
2022/03/07 08:40:19;;;;;;;9.45;5.75;;;;;;;2.89;60.28;148392.75;1780020;79;20961;-65
2022/03/07 08:42:47;;;;;;;13.03;6.17;;;;;;;2.88;59.87;148390.17;1745301;82;20972;-64
2022/03/07 08:45:14;;;;;;;10.15;5.75;;;;;;;2.86;59.46;148386.28;1779360;79;21644;-63
2022/03/07 08:47:41;;;;;;;8.08;4.60;;;;;;;2.85;58.66;148382.39;1745234;82;20992;-60
2022/03/07 08:50:10;;;;;;;10.95;5.83;;;;;;;2.86;58.20;148384.97;1779693;80;20873;-58
2022/03/07 08:52:38;;;;;;;9.83;5.15;;;;;;;2.86;58.16;148384.97;1745178;82;21011;-58
2022/03/07 08:55:06;;;;;;;7.40;4.15;;;;;;;2.90;58.74;148394.02;1777587;79;21333;-60
2022/03/07 08:57:34;;;;;;;8.88;4.70;;;;;;;2.98;58.36;148414.64;1736500;81;21848;-59
2022/03/07 09:00:01;;;;;;;8.10;4.85;;;;;;;3.01;58.51;148423.69;1720565;83;20959;-58
2022/03/07 09:02:28;;;;;;;9.03;5.20;;;;;;;3.15;58.99;148457.25;1735763;82;21474;-59
2022/03/07 09:04:55;;;;;;;7.50;3.87;;;;;;;3.33;59.38;148501.13;1736170;82;21463;-59
2022/03/07 09:07:22;;;;;;;5.33;3.20;;;;;;;3.41;58.38;148523.03;1735848;82;21152;-59
2022/03/07 09:09:51;;;;;;;7.12;3.42;;;;;;;3.42;58.31;148525.61;1734156;82;20961;-58
2022/03/07 09:12:19;;;;;;;7.75;4.00;;;;;;;3.43;58.33;148528.23;1735103;82;21139;-58
2022/03/07 09:14:46;;;;;;;8.75;3.80;;;;;;;3.32;58.49;148499.81;1732811;81;21108;-64
2022/03/07 09:17:14;;;;;;;6.05;3.72;;;;;;;3.10;59.36;148445.62;1717265;81;21099;-64
2022/03/07 09:19:41;;;;;;;6.65;4.35;;;;;;;3.10;59.36;148445.62;1733555;82;21311;-64
2022/03/07 09:22:08;;;;;;;11.68;3.92;;;;;;;3.22;59.41;148474.03;1723049;81;20970;-65
2022/03/07 09:24:37;;;;;;;7.20;4.15;;;;;;;3.34;59.31;148504.97;1696901;82;21577;-65
2022/03/07 09:27:04;;;;;;;7.35;4.40;;;;;;;3.41;58.72;148523.03;1739409;82;21065;-64
2022/03/07 09:29:32;;;;;;;6.83;4.22;;;;;;;3.42;58.62;148524.34;1749465;80;21057;-64
2022/03/07 09:32:00;;;;;;;9.95;5.08;;;;;;;3.47;58.70;148535.97;1777453;80;20844;-58
2022/03/07 09:34:27;;;;;;;10.80;4.90;;;;;;;3.59;58.84;148566.92;1778016;80;21932;-59
2022/03/07 09:36:54;;;;;;;9.48;5.17;;;;;;;3.74;58.31;148604.34;1778516;80;21047;-59
2022/03/07 09:39:21;;;;;;;7.10;4.55;;;;;;;3.81;58.01;148621.14;1777778;80;21050;-65
2022/03/07 09:41:49;;;;;;;7.75;4.53;;;;;;;3.92;58.08;148648.25;1777962;80;21089;-65
2022/03/07 09:44:16;;;;;;;6.87;4.58;;;;;;;4.05;57.86;148680.53;1778010;80;21066;-64
2022/03/07 09:46:44;;;;;;;9.40;4.78;;;;;;;4.18;56.72;148714.13;1777966;80;21243;-64
2022/03/07 09:49:11;;;;;;;6.42;4.33;;;;;;;4.18;56.72;148714.13;1777808;80;20959;-65
2022/03/07 09:51:39;;;;;;;9.55;4.67;;;;;;;4.20;56.30;148719.28;1777812;80;20974;-64
2022/03/07 09:54:07;;;;;;;8.13;4.72;;;;;;;4.23;56.22;148727.03;1777775;80;21102;-64
2022/03/07 09:56:34;;;;;;;9.08;4.75;;;;;;;4.26;55.86;148734.77;1777178;80;21085;-65
2022/03/07 09:59:02;;;;;;;8.83;4.35;;;;;;;4.19;54.63;148716.70;1778165;80;21318;-64
2022/03/07 10:01:30;;;;;;;8.13;4.00;;;;;;;4.04;54.76;148677.95;1777706;80;21484;-65
2022/03/07 10:04:08;;;;;;;6.05;4.12;;;;;;;4.02;55.17;148674.11;1777940;80;20986;-65
2022/03/07 10:06:35;;;;;;;6.50;3.77;;;;;;;4.25;54.97;148732.19;1777425;80;21119;-59
2022/03/07 10:09:04;;;;;;;7.45;4.60;;;;;;;4.25;54.97;148732.19;1777953;80;20993;-59
2022/03/07 10:11:33;;;;;;;9.10;5.00;;;;;;;4.31;54.69;148746.41;1792611;78;22343;-59
2022/03/07 10:14:04;;;;;;;8.93;4.62;;;;;;;4.36;54.61;148759.31;1772194;80;21064;-59
2022/03/07 10:16:40;;;;;;;8.53;4.40;;;;;;;4.48;54.58;148789.02;1772454;80;21056;-66
2022/03/07 10:19:13;;;;;;;8.73;4.40;;;;;;;4.56;53.56;148808.41;1771363;80;21573;-59
2022/03/07 10:21:48;;;;;;;7.72;4.60;;;;;;;4.54;53.43;148804.55;1772374;80;21798;-60
2022/03/07 10:24:16;;;;;;;5.87;4.00;;;;;;;4.57;53.57;148810.97;1772470;80;21087;-65
2022/03/07 10:26:44;;;;;;;8.75;4.10;;;;;;;4.71;53.54;148845.84;1772700;79;21120;-58
2022/03/07 10:29:11;;;;;;;6.75;4.53;;;;;;;4.85;53.40;148880.72;1773419;80;21130;-58
2022/03/07 10:31:44;;;;;;;6.97;4.60;;;;;;;4.99;53.11;148916.92;1743845;82;21537;-64
2022/03/07 10:34:10;;;;;;;9.15;4.30;;;;;;;5.11;52.35;148946.64;1778948;79;21123;-65
2022/03/07 10:36:40;;;;;;;8.38;4.53;;;;;;;5.22;51.95;148972.52;1744859;82;21115;-65
2022/03/07 10:39:10;;;;;;;8.78;4.33;;;;;;;5.28;51.80;148988.02;1779205;80;20946;-58
2022/03/07 10:41:40;;;;;;;9.50;4.92;;;;;;;5.32;50.92;148998.34;1779066;80;21425;-59
2022/03/07 10:44:12;;;;;;;7.25;4.12;;;;;;;5.30;51.16;148994.50;1779059;80;21139;-64
2022/03/07 10:46:40;;;;;;;7.17;4.00;;;;;;;5.39;51.17;149016.42;1777709;80;21206;-64
2022/03/07 10:49:10;;;;;;;4.97;3.20;;;;;;;5.49;50.82;149039.72;1744098;82;21228;-59
2022/03/07 10:51:37;;;;;;;5.67;3.55;;;;;;;5.57;50.35;149060.39;1731272;80;21104;-58
2022/03/07 10:54:10;;;;;;;5.25;3.75;;;;;;;5.56;49.70;149057.80;1743848;80;21015;-59
2022/03/07 10:56:52;;;;;;;5.28;3.25;;;;;;;5.49;49.50;149039.72;1773959;80;21085;-58
2022/03/07 10:59:32;;;;;;;8.13;4.10;;;;;;;5.37;49.68;149011.25;1735944;82;21019;-58
2022/03/07 11:02:06;;;;;;;5.60;3.98;;;;;;;5.33;50.19;149000.92;1718837;83;21072;-64
2022/03/07 11:04:34;;;;;;;6.00;3.92;;;;;;;5.43;50.23;149025.48;1718483;83;26791;-65
2022/03/07 11:07:01;;;;;;;6.05;3.70;;;;;;;5.46;50.17;149033.23;1735253;81;21131;-65
2022/03/07 11:09:28;;;;;;;6.78;4.05;;;;;;;5.52;50.34;149047.47;1708067;82;21000;-64
2022/03/07 11:11:55;;;;;;;6.30;3.80;;;;;;;5.64;50.32;149078.52;1733374;82;21682;-59
2022/03/07 11:14:22;;;;;;;7.30;4.12;;;;;;;5.73;49.85;149101.77;1735542;81;22138;-58
2022/03/07 11:16:50;;;;;;;7.58;4.33;;;;;;;5.85;49.84;149130.19;1736426;82;21087;-58
2022/03/07 11:19:20;;;;;;;7.17;4.03;;;;;;;5.98;49.68;149162.56;1735538;82;21061;-59
2022/03/07 11:21:50;;;;;;;6.33;3.58;;;;;;;6.10;49.49;149192.36;1736570;82;21041;-59
2022/03/07 11:24:16;;;;;;;6.17;3.77;;;;;;;6.25;49.25;149229.84;1735751;82;21077;-60
2022/03/07 11:26:43;;;;;;;6.83;3.92;;;;;;;6.26;48.79;149233.70;1736061;82;21037;-59